Details From LTBQ - Topel
To LTBI - Eskisehir
Flight Number -
Tags Routegen Generated
Created
Modified
Stats Distance 73 nm / 135 km
Max Altitude 100 ft / 30 m
Waypoints 13
Social Downloads 9
Likes 0
Share

Download

Looking for another format? Having issues loading an existing format? Contact us
Advertisement - Login to hide

Notes

Departing runway 9 LTBQ. Arriving runway 8 LTBI.

Route

LTBQ +40.73_+030.20 +40.70_+030.26 +40.66_+030.32 +40.60_+030.35 +40.55_+030.35 +40.25_+030.32 +39.95_+030.29 +39.89_+030.30 +39.84_+030.34 +39.80_+030.40 +39.78_+030.47 LTBI

ID Type Via Altitude (ft/m) Position (lat/lon) Dist (leg/tot) Name
O LTBQ APT - 0 / 0 40.73355 / 30.10084 - / 0 nm
+40.73_+030.20 LATLON - 100 / 30 40.72551 / 30.19574 4 / 4 nm
+40.70_+030.26 LATLON - 100 / 30 40.69980 / 30.26417 3 / 7 nm
+40.66_+030.32 LATLON - 100 / 30 40.65790 / 30.31685 3 / 11 nm
+40.60_+030.35 LATLON - 100 / 30 40.60486 / 30.34744 3 / 14 nm
+40.55_+030.35 LATLON - 100 / 30 40.54709 / 30.35229 3 / 18 nm
+40.25_+030.32 LATLON - 100 / 30 40.24689 / 30.32067 18 / 36 nm
+39.95_+030.29 LATLON - 100 / 30 39.94669 / 30.28904 18 / 54 nm
+39.89_+030.30 LATLON - 100 / 30 39.88975 / 30.30268 3 / 57 nm
+39.84_+030.34 LATLON - 100 / 30 39.83983 / 30.34087 3 / 61 nm
+39.80_+030.40 LATLON - 100 / 30 39.80295 / 30.39897 3 / 64 nm
+39.78_+030.47 LATLON - 100 / 30 39.78355 / 30.46997 3 / 68 nm
O LTBI APT - 0 / 0 39.78411 / 30.56413 4 / 72 nm

Altitude Profile

Advertisement - Login to hide

LTBQ

Details ICAO LTBQ (KCO)
Name Cengiz Topel
Region Turkey
Timezone Europe/Istanbul (UTC+3.0)
Stats Elevation 182 ft / 55 m (AMSL)
Location 40.735100° 30.083200°
Runways 1
Magnetic Variation 5.923° E

METAR

LTBQ 290750Z 17011G30KT 110V240 8000 SCT035 OVC080 26/06 Q1002 TEMPO 21030G45KT RMK RWY09 18015G30KT 140V220

Decode

TAF

Not found

Departure Runways

ID Width Length Bearing (true/mag) Surface Threshold Overrun Markings Lighting
09 98 ft / 30 m 9,786 ft / 2,983 m 96.32° / 90.40° ASPHALT 0 ft / 0 m 328 ft / 100 m PREC-APP EDGE THRESHOLD
27 98 ft / 30 m 9,786 ft / 2,983 m 276.34° / 270.42° ASPHALT 0 ft / 0 m 328 ft / 100 m PREC-APP EDGE THRESHOLD CALVERT

LTBI

Details ICAO LTBI (ESK)
Name ESKISEHIR
Region Turkey
Timezone Europe/Istanbul (UTC+3.0)
Stats Elevation 2,581 ft / 787 m (AMSL)
Location 39.784200° 30.581900°
Runways 1
Magnetic Variation 5.824° E

METAR

LTBI 290750Z 08006KT 050V120 CAVOK 17/08 Q1012 NOSIG RMK RWY08 12005KT 060V170

Decode

TAF

Not found

Destination Runways

ID Width Length Bearing (true/mag) Surface Threshold Overrun Markings Lighting
09 150 ft / 46 m 9,984 ft / 3,043 m 89.57° / 83.75° ASPHALT 0 ft / 0 m 513 ft / 156 m APP EDGE THRESHOLD
27 150 ft / 46 m 9,984 ft / 3,043 m 269.59° / 263.77° ASPHALT 0 ft / 0 m 493 ft / 150 m APP EDGE THRESHOLD CALVERT